createdAt,value
2018-08-10T00:01:57.929Z,100130.93
2018-08-10T00:04:26.877Z,100130.27
2018-08-10T00:06:56.477Z,100135.67
2018-08-10T00:09:25.883Z,100131.94
2018-08-10T00:11:54.749Z,100137.17
2018-08-10T00:14:23.979Z,100140.75
2018-08-10T00:16:52.479Z,100149.47
2018-08-10T00:19:23.497Z,100159.91
2018-08-10T00:21:52.787Z,100156.98
2018-08-10T00:24:21.329Z,100162.58
2018-08-10T00:26:50.806Z,100165.26
2018-08-10T00:29:19.367Z,100160.59
2018-08-10T00:31:47.946Z,100162.20
2018-08-10T00:34:17.947Z,100169.98
2018-08-10T00:36:47.176Z,100167.67
2018-08-10T00:39:15.808Z,100161.48
2018-08-10T00:41:45.171Z,100170.02
2018-08-10T00:44:13.780Z,100172.73
2018-08-10T00:46:42.592Z,100178.30
2018-08-10T00:49:11.090Z,100183.52
2018-08-10T00:51:39.592Z,100182.75
2018-08-10T00:54:08.272Z,100190.53
2018-08-10T00:56:50.400Z,100196.22
2018-08-10T00:59:18.998Z,100205.01
2018-08-10T01:01:47.733Z,100208.12
2018-08-10T01:04:16.147Z,100209.73
2018-08-10T01:06:44.599Z,100212.17
2018-08-10T01:09:13.608Z,100221.95
2018-08-10T01:11:42.485Z,100223.83
2018-08-10T01:14:11.056Z,100231.94
2018-08-10T01:16:39.620Z,100227.98
2018-08-10T01:19:08.183Z,100233.96
2018-08-10T01:21:36.752Z,100237.27
2018-08-10T01:24:05.299Z,100241.41
2018-08-10T01:26:52.497Z,100243.39
2018-08-10T01:29:21.072Z,100242.20
2018-08-10T01:31:51.806Z,100238.67
2018-08-10T01:34:21.142Z,100245.80
2018-08-10T01:36:49.622Z,100255.66
2018-08-10T01:39:18.153Z,100239.52
2018-08-10T01:41:47.710Z,100248.30
2018-08-10T01:44:16.266Z,100250.05
2018-08-10T01:46:45.060Z,100252.98
2018-08-10T01:49:13.504Z,100251.25
2018-08-10T01:51:42.058Z,100259.61
2018-08-10T01:54:11.164Z,100264.06
2018-08-10T01:56:40.078Z,100267.72
2018-08-10T01:59:08.638Z,100264.23
2018-08-10T02:01:37.204Z,100270.58
2018-08-10T02:04:05.656Z,100266.36
2018-08-10T02:06:39.235Z,100267.53
2018-08-10T02:09:09.232Z,100269.62
2018-08-10T02:11:38.040Z,100267.27
2018-08-10T02:14:07.004Z,100277.54
2018-08-10T02:16:44.978Z,100277.86
2018-08-10T02:19:13.541Z,100276.08
2018-08-10T02:21:42.228Z,100272.92
2018-08-10T02:24:11.506Z,100276.99
2018-08-10T02:26:42.303Z,100276.52
2018-08-10T02:29:11.240Z,100272.50
2018-08-10T02:31:41.400Z,100270.74
2018-08-10T02:34:10.060Z,100266.41
2018-08-10T02:36:38.719Z,100268.69
2018-08-10T02:39:09.590Z,100277.80
2018-08-10T02:41:38.174Z,100277.16
2018-08-10T02:44:06.806Z,100279.54
2018-08-10T02:46:35.848Z,100293.44
2018-08-10T02:49:04.456Z,100289.87
2018-08-10T02:51:33.066Z,100290.42
2018-08-10T02:54:01.851Z,100292.92
2018-08-10T02:59:33.121Z,100290.95
2018-08-10T03:02:01.867Z,100301.23
2018-08-10T03:04:30.831Z,100295.41
2018-08-10T03:07:17.986Z,100299.42
2018-08-10T03:09:46.525Z,100312.51
2018-08-10T03:12:15.754Z,100316.23
2018-08-10T03:14:46.222Z,100318.82
2018-08-10T03:17:15.893Z,100320.94
2018-08-10T03:19:44.465Z,100322.19
2018-08-10T03:22:14.132Z,100337.71
2018-08-10T03:24:42.851Z,100340.75
2018-08-10T03:27:11.657Z,100334.66
2018-08-10T03:29:40.275Z,100337.78
2018-08-10T03:32:08.717Z,100341.66
2018-08-10T03:34:38.287Z,100341.48
2018-08-10T03:37:07.204Z,100351.13
2018-08-10T03:39:35.735Z,100351.13
2018-08-10T03:42:04.409Z,100356.55
2018-08-10T03:44:33.117Z,100362.68
2018-08-10T03:47:06.741Z,100367.47
2018-08-10T03:49:35.303Z,100371.25
2018-08-10T03:52:03.859Z,100373.13
2018-08-10T03:54:32.569Z,100382.41
2018-08-10T03:57:06.544Z,100379.22
2018-08-10T03:59:34.945Z,100385.48
2018-08-10T04:02:03.749Z,100387.21
2018-08-10T04:04:32.406Z,100389.99
2018-08-10T04:07:00.991Z,100387.62
2018-08-10T04:09:29.809Z,100385.02
2018-08-10T04:11:58.298Z,100388.65
2018-08-10T04:14:27.131Z,100384.72
2018-08-10T04:16:55.869Z,100392.35
2018-08-10T04:19:24.964Z,100395.07
2018-08-10T04:21:53.875Z,100404.13
2018-08-10T04:24:22.989Z,100413.63
2018-08-10T04:26:51.965Z,100417.83
2018-08-10T04:29:20.975Z,100420.06
2018-08-10T04:31:50.807Z,100430.25
2018-08-10T04:34:19.508Z,100436.47
2018-08-10T04:36:48.427Z,100430.20
2018-08-10T04:42:53.053Z,100470.64
2018-08-10T04:45:23.601Z,100482.34
2018-08-10T04:47:59.159Z,100483.83
2018-08-10T04:50:27.701Z,100493.23
2018-08-10T04:52:56.191Z,100500.02
2018-08-10T04:55:24.828Z,100494.92
2018-08-10T04:57:53.199Z,100504.27
2018-08-10T05:00:21.703Z,100512.04
2018-08-10T05:02:50.157Z,100514.03
2018-08-10T05:05:18.741Z,100510.83
2018-08-10T05:07:57.216Z,100507.81
2018-08-10T05:10:25.975Z,100522.50
2018-08-10T05:12:54.968Z,100517.02
2018-08-10T05:15:23.529Z,100520.14
2018-08-10T05:17:52.083Z,100527.11
2018-08-10T05:20:21.583Z,100530.59
2018-08-10T05:22:50.365Z,100545.99
2018-08-10T05:25:19.157Z,100543.66
2018-08-10T05:27:48.312Z,100547.50
2018-08-10T05:30:16.839Z,100561.39
2018-08-10T05:32:45.815Z,100572.37
2018-08-10T05:35:14.980Z,100571.11
2018-08-10T05:37:43.622Z,100576.53
2018-08-10T05:40:12.423Z,100581.45
2018-08-10T05:42:40.988Z,100592.19
2018-08-10T05:45:09.972Z,100593.91
2018-08-10T05:47:43.548Z,100608.95
2018-08-10T05:50:12.671Z,100619.27
2018-08-10T05:52:41.258Z,100616.02
2018-08-10T05:55:10.112Z,100626.08
2018-08-10T05:57:44.069Z,100630.17
2018-08-10T06:00:16.019Z,100633.81
2018-08-10T06:02:45.335Z,100646.67
2018-08-10T06:05:14.234Z,100646.94
2018-08-10T06:07:43.463Z,100645.28
2018-08-10T06:10:12.494Z,100643.25
2018-08-10T06:12:41.505Z,100641.22
2018-08-10T06:15:11.398Z,100644.16
2018-08-10T06:17:40.496Z,100646.52
2018-08-10T06:20:10.515Z,100644.80
2018-08-10T06:22:39.237Z,100652.70
2018-08-10T06:25:08.664Z,100651.05
2018-08-10T06:27:37.448Z,100654.89
2018-08-10T06:30:13.224Z,100652.60
2018-08-10T06:32:41.812Z,100658.72
2018-08-10T06:35:10.570Z,100658.50
2018-08-10T06:37:44.148Z,100666.12
2018-08-10T06:40:12.670Z,100666.02
2018-08-10T06:42:41.532Z,100678.55
2018-08-10T06:45:10.510Z,100684.73
2018-08-10T06:47:39.559Z,100690.38
2018-08-10T06:50:08.633Z,100689.72
2018-08-10T06:52:37.369Z,100690.50
2018-08-10T06:55:05.940Z,100702.91
2018-08-10T06:57:35.266Z,100695.38
2018-08-10T07:00:03.905Z,100695.03
2018-08-10T07:02:32.631Z,100707.44
2018-08-10T07:05:01.263Z,100709.14
2018-08-10T07:07:29.895Z,100710.03
2018-08-10T07:09:58.440Z,100725.56
2018-08-10T07:12:26.925Z,100732.09
2018-08-10T07:14:55.691Z,100724.44
2018-08-10T07:17:24.291Z,100725.55
2018-08-10T07:19:52.842Z,100738.25
2018-08-10T07:22:21.723Z,100741.52
2018-08-10T07:24:51.318Z,100744.53
2018-08-10T07:27:20.822Z,100741.05
2018-08-10T07:29:49.678Z,100751.66
2018-08-10T07:32:18.654Z,100753.83
2018-08-10T07:34:47.240Z,100755.08
2018-08-10T07:37:17.317Z,100765.91
2018-08-10T07:39:46.510Z,100762.52
2018-08-10T07:42:15.422Z,100768.30
2018-08-10T07:44:44.502Z,100775.41
2018-08-10T07:47:13.278Z,100776.88
2018-08-10T07:49:42.334Z,100778.92
2018-08-10T07:52:11.121Z,100777.65
2018-08-10T07:54:39.954Z,100780.28
2018-08-10T07:57:13.732Z,100785.69
2018-08-10T07:59:43.258Z,100783.11
2018-08-10T08:02:12.128Z,100783.88
2018-08-10T08:04:41.147Z,100791.19
2018-08-10T08:07:09.648Z,100788.92
2018-08-10T08:09:38.390Z,100795.88
2018-08-10T08:12:06.984Z,100794.05
2018-08-10T08:14:35.650Z,100798.91
2018-08-10T08:17:04.480Z,100796.72
2018-08-10T08:19:33.648Z,100796.23
2018-08-10T08:22:10.265Z,100804.13
2018-08-10T08:24:39.872Z,100806.14
2018-08-10T08:27:14.859Z,100810.41
2018-08-10T08:29:43.322Z,100809.08
2018-08-10T08:32:12.004Z,100813.83
2018-08-10T08:34:40.786Z,100819.03
2018-08-10T08:37:19.536Z,100813.52
2018-08-10T08:40:24.574Z,100804.67
2018-08-10T08:42:53.224Z,100834.42
2018-08-10T08:45:50.021Z,100830.52
2018-08-10T08:48:24.550Z,100841.11
2018-08-10T08:50:58.536Z,100843.78
2018-08-10T08:53:28.913Z,100845.33
2018-08-10T08:56:03.044Z,100850.05
2018-08-10T08:58:32.448Z,100847.56
2018-08-10T09:01:01.048Z,100856.38
2018-08-10T09:03:41.031Z,100860.31
2018-08-10T09:06:10.749Z,100858.47
2018-08-10T09:08:45.320Z,100860.35
2018-08-10T09:11:14.248Z,100854.07
2018-08-10T09:14:55.291Z,100856.60
2018-08-10T09:17:24.501Z,100846.31
2018-08-10T09:19:53.870Z,100844.83
2018-08-10T09:22:24.144Z,100849.84
2018-08-10T09:24:53.853Z,100845.89
2018-08-10T09:33:07.820Z,100844.89
2018-08-10T09:35:39.116Z,100851.44
2018-08-10T09:38:08.880Z,100850.06
2018-08-10T09:40:37.392Z,100848.72
2018-08-10T09:43:06.874Z,100851.83
2018-08-10T09:45:35.688Z,100854.15
2018-08-10T09:48:04.474Z,100859.28
2018-08-10T09:50:35.583Z,100853.22
2018-08-10T09:53:05.510Z,100851.10
2018-08-10T09:55:37.090Z,100858.62
2018-08-10T09:58:09.642Z,100858.10
2018-08-10T10:00:45.587Z,100849.20
2018-08-10T10:03:18.442Z,100846.28
2018-08-10T10:05:48.890Z,100840.47
2018-08-10T10:08:18.134Z,100854.58
2018-08-10T10:10:46.798Z,100852.20
2018-08-10T10:13:15.480Z,100857.30
2018-08-10T10:15:44.735Z,100855.74
2018-08-10T10:18:14.597Z,100859.64
2018-08-10T10:20:44.099Z,100864.38
2018-08-10T10:23:13.196Z,100854.02
2018-08-10T10:25:42.995Z,100856.88
2018-08-10T10:28:16.733Z,100857.80
2018-08-10T10:30:45.360Z,100858.61
2018-08-10T10:33:14.071Z,100855.80
2018-08-10T10:35:44.338Z,100856.30
2018-08-10T10:38:13.701Z,100852.23
2018-08-10T10:40:42.498Z,100844.51
2018-08-10T10:43:11.668Z,100847.05
2018-08-10T10:45:41.402Z,100849.45
2018-08-10T10:48:10.110Z,100861.80
2018-08-10T10:50:38.672Z,100863.94
2018-08-10T10:53:07.852Z,100863.97
2018-08-10T10:55:36.532Z,100859.37
2018-08-10T10:58:07.168Z,100858.30
2018-08-10T11:00:37.279Z,100861.27
2018-08-10T11:03:06.834Z,100874.45
2018-08-10T11:05:35.882Z,100863.16
2018-08-10T11:08:05.079Z,100861.22
2018-08-10T11:10:34.730Z,100862.20
2018-08-10T11:13:04.986Z,100865.29
2018-08-10T11:15:33.786Z,100872.46
2018-08-10T11:18:02.446Z,100866.53
2018-08-10T11:20:31.123Z,100875.42
2018-08-10T11:22:59.600Z,100868.94
2018-08-10T11:25:28.300Z,100858.83
2018-08-10T11:28:10.380Z,100863.41
2018-08-10T11:30:39.003Z,100859.56
2018-08-10T11:33:07.529Z,100854.42
2018-08-10T11:35:36.123Z,100856.81
2018-08-10T11:38:04.791Z,100858.66
2018-08-10T11:40:33.345Z,100852.50
2018-08-10T11:43:02.024Z,100858.72
2018-08-10T11:45:30.567Z,100854.28
2018-08-10T11:47:59.418Z,100850.69
2018-08-10T11:50:27.974Z,100848.81
2018-08-10T11:52:57.226Z,100855.25
2018-08-10T11:55:26.148Z,100848.84
2018-08-10T11:57:54.866Z,100861.69
2018-08-10T12:00:23.444Z,100866.38
2018-08-10T12:02:52.832Z,100857.61
2018-08-10T12:05:21.425Z,100864.28
2018-08-10T12:07:50.132Z,100858.41
2018-08-10T12:10:19.749Z,100847.76
2018-08-10T12:12:49.150Z,100856.00
2018-08-10T12:15:17.808Z,100855.03
2018-08-10T12:17:51.422Z,100852.86
2018-08-10T12:20:20.795Z,100851.46
2018-08-10T12:22:49.636Z,100847.85
2018-08-10T12:25:18.425Z,100842.41
2018-08-10T12:27:52.196Z,100852.44
2018-08-10T12:33:01.563Z,100852.70
2018-08-10T12:35:31.164Z,100856.61
2018-08-10T12:38:05.865Z,100849.72
2018-08-10T12:40:35.718Z,100839.77
2018-08-10T12:43:04.253Z,100846.20
2018-08-10T12:45:33.091Z,100859.76
2018-08-10T12:48:20.309Z,100848.94
2018-08-10T12:50:49.766Z,100841.28
2018-08-10T12:53:18.605Z,100838.75
2018-08-10T12:55:47.210Z,100851.18
2018-08-10T12:58:16.051Z,100843.16
2018-08-10T13:00:44.887Z,100857.05
2018-08-10T13:03:13.338Z,100845.23
2018-08-10T13:05:42.211Z,100847.20
2018-08-10T13:08:10.648Z,100853.07
2018-08-10T13:10:39.567Z,100857.02
2018-08-10T13:13:08.000Z,100842.30
2018-08-10T13:15:36.632Z,100840.34
2018-08-10T13:18:05.161Z,100839.40
2018-08-10T13:20:33.616Z,100833.30
2018-08-10T13:23:02.368Z,100832.53
2018-08-10T13:25:30.856Z,100836.44
2018-08-10T13:27:59.524Z,100837.19
2018-08-10T13:30:28.074Z,100845.22
2018-08-10T13:32:56.525Z,100840.44
2018-08-10T13:35:25.033Z,100834.30
2018-08-10T13:37:53.422Z,100834.66
2018-08-10T13:40:21.863Z,100836.13
2018-08-10T13:42:50.300Z,100830.53
2018-08-10T13:45:18.821Z,100839.77
2018-08-10T13:47:47.424Z,100841.89
2018-08-10T13:50:16.818Z,100836.20
2018-08-10T13:52:45.640Z,100829.01
2018-08-10T13:55:17.542Z,100840.29
2018-08-10T13:57:47.040Z,100835.23
2018-08-10T14:00:24.550Z,100831.77
2018-08-10T14:02:54.384Z,100833.30
2018-08-10T14:05:23.630Z,100827.78
2018-08-10T14:07:52.911Z,100827.69
2018-08-10T14:10:21.499Z,100832.22
2018-08-10T14:12:49.964Z,100824.77
2018-08-10T14:15:18.573Z,100821.41
2018-08-10T14:17:47.120Z,100822.20
2018-08-10T14:20:15.600Z,100815.34
2018-08-10T14:22:44.069Z,100824.30
2018-08-10T14:25:13.048Z,100820.02
2018-08-10T14:27:41.755Z,100815.34
2018-08-10T14:30:13.504Z,100810.89
2018-08-10T14:32:42.061Z,100806.36
2018-08-10T14:35:10.650Z,100800.73
2018-08-10T14:37:40.283Z,100797.81
2018-08-10T14:40:10.874Z,100798.63
2018-08-10T14:42:39.808Z,100804.71
2018-08-10T14:45:12.510Z,100803.10
2018-08-10T14:47:41.030Z,100797.75
2018-08-10T14:50:11.559Z,100800.88
2018-08-10T14:52:40.149Z,100807.61
2018-08-10T14:55:10.320Z,100806.69
2018-08-10T14:57:39.393Z,100800.50
2018-08-10T15:00:12.346Z,100800.67
2018-08-10T15:02:41.135Z,100800.38
2018-08-10T15:05:09.946Z,100794.44
2018-08-10T15:07:38.768Z,100794.23
2018-08-10T15:10:10.479Z,100796.61
2018-08-10T15:12:39.362Z,100799.48
2018-08-10T15:15:09.795Z,100789.09
2018-08-10T15:17:39.986Z,100799.56
2018-08-10T15:20:10.384Z,100805.55
2018-08-10T15:22:38.872Z,100795.63
2018-08-10T15:25:08.430Z,100782.89
2018-08-10T15:27:37.122Z,100786.80
2018-08-10T15:30:06.362Z,100790.46
2018-08-10T15:32:34.902Z,100794.64
2018-08-10T15:35:03.814Z,100786.41
2018-08-10T15:37:32.381Z,100785.52
2018-08-10T15:40:00.952Z,100783.89
2018-08-10T15:42:29.556Z,100780.17
2018-08-10T15:44:58.333Z,100793.99
2018-08-10T15:47:26.921Z,100782.83
2018-08-10T15:49:55.435Z,100784.83
2018-08-10T15:52:24.070Z,100783.78
2018-08-10T15:54:52.578Z,100779.87
2018-08-10T15:57:21.880Z,100779.48
2018-08-10T15:59:50.642Z,100772.87
2018-08-10T16:02:19.286Z,100766.33
2018-08-10T16:04:47.723Z,100766.83
2018-08-10T16:07:16.622Z,100760.13
2018-08-10T16:09:45.190Z,100765.80
2018-08-10T16:12:14.435Z,100772.23
2018-08-10T16:14:43.093Z,100766.57
2018-08-10T16:17:11.544Z,100767.16
2018-08-10T16:19:45.724Z,100766.06
2018-08-10T16:22:14.153Z,100760.88
2018-08-10T16:24:42.710Z,100753.08
2018-08-10T16:27:12.331Z,100760.71
2018-08-10T16:29:40.944Z,100758.32
2018-08-10T16:32:09.525Z,100763.02
2018-08-10T16:34:38.293Z,100764.00
2018-08-10T16:37:06.924Z,100762.48
2018-08-10T16:39:35.751Z,100767.23
2018-08-10T16:42:04.338Z,100764.83
2018-08-10T16:44:32.977Z,100762.16
2018-08-10T16:47:02.179Z,100752.88
2018-08-10T16:49:30.722Z,100754.97
2018-08-10T16:51:59.322Z,100762.16
2018-08-10T16:54:27.846Z,100759.10
2018-08-10T16:56:56.586Z,100750.48
2018-08-10T16:59:25.435Z,100747.05
2018-08-10T17:01:54.299Z,100757.78
2018-08-10T17:04:22.985Z,100756.20
2018-08-10T17:06:52.546Z,100754.02
2018-08-10T17:09:21.077Z,100755.73
2018-08-10T17:11:50.449Z,100755.89
2018-08-10T17:14:20.105Z,100753.67
2018-08-10T17:16:49.090Z,100752.47
2018-08-10T17:19:17.745Z,100758.42
2018-08-10T17:21:46.292Z,100761.87
2018-08-10T17:24:15.053Z,100759.89
2018-08-10T17:26:43.694Z,100760.11
2018-08-10T17:29:12.550Z,100752.87
2018-08-10T17:31:42.196Z,100754.50
2018-08-10T17:34:10.784Z,100753.97
2018-08-10T17:36:39.922Z,100753.16
2018-08-10T17:39:12.418Z,100755.06
2018-08-10T17:41:41.576Z,100748.94
2018-08-10T17:44:10.292Z,100756.19
2018-08-10T17:46:38.982Z,100757.16
2018-08-10T17:49:16.991Z,100758.67
2018-08-10T17:51:45.894Z,100769.72
2018-08-10T17:54:14.694Z,100760.17
2018-08-10T17:56:43.377Z,100772.14
2018-08-10T17:59:12.868Z,100773.29
2018-08-10T18:01:41.994Z,100777.52
2018-08-10T18:04:11.610Z,100774.12
2018-08-10T18:06:40.644Z,100786.75
2018-08-10T18:09:10.775Z,100785.07
2018-08-10T18:11:39.837Z,100786.48
2018-08-10T18:14:09.478Z,100786.42
2018-08-10T18:16:38.320Z,100787.27
2018-08-10T18:19:06.996Z,100790.61
2018-08-10T18:21:36.450Z,100798.59
2018-08-10T18:24:05.550Z,100794.97
2018-08-10T18:26:34.557Z,100801.03
2018-08-10T18:29:03.458Z,100798.31
2018-08-10T18:31:32.015Z,100796.61
2018-08-10T18:34:00.949Z,100801.78
2018-08-10T18:36:31.560Z,100807.75
2018-08-10T18:39:09.685Z,100807.47
2018-08-10T18:41:38.476Z,100807.59
2018-08-10T18:44:07.512Z,100807.00
2018-08-10T18:46:36.231Z,100811.02
2018-08-10T18:49:05.637Z,100807.31
2018-08-10T18:51:35.306Z,100803.94
2018-08-10T18:54:04.304Z,100808.47
2018-08-10T18:56:33.236Z,100804.17
2018-08-10T18:59:11.242Z,100805.91
2018-08-10T19:01:40.000Z,100806.09
2018-08-10T19:04:08.872Z,100807.97
2018-08-10T19:06:37.764Z,100811.66
2018-08-10T19:09:08.786Z,100806.55
2018-08-10T19:11:38.226Z,100816.22
2018-08-10T19:14:07.266Z,100811.88
2018-08-10T19:16:36.372Z,100816.41
2018-08-10T19:19:10.042Z,100814.61
2018-08-10T19:21:39.036Z,100816.93
2018-08-10T19:24:08.143Z,100816.42
2018-08-10T19:26:36.918Z,100815.64
2018-08-10T19:29:10.922Z,100819.21
2018-08-10T19:31:39.850Z,100818.07
2018-08-10T19:34:08.598Z,100818.84
2018-08-10T19:36:37.899Z,100816.57
2018-08-10T19:39:12.518Z,100817.08
2018-08-10T19:41:44.048Z,100821.09
2018-08-10T19:44:14.530Z,100819.10
2018-08-10T19:46:44.142Z,100821.02
2018-08-10T19:49:13.228Z,100828.40
2018-08-10T19:51:41.858Z,100824.39
2018-08-10T19:54:10.489Z,100821.89
2018-08-10T19:56:39.616Z,100822.99
2018-08-10T19:59:08.775Z,100829.68
2018-08-10T20:01:37.878Z,100821.04
2018-08-10T20:04:07.486Z,100826.48
2018-08-10T20:06:38.750Z,100829.20
2018-08-10T20:09:13.490Z,100826.77
2018-08-10T20:11:42.108Z,100828.19
2018-08-10T20:14:11.277Z,100829.55
2018-08-10T20:16:40.434Z,100828.33
2018-08-10T20:19:18.650Z,100830.05
2018-08-10T20:21:48.857Z,100837.26
2018-08-10T20:24:17.719Z,100830.24
2018-08-10T20:26:46.948Z,100828.84
2018-08-10T20:29:16.362Z,100827.55
2018-08-10T20:31:45.201Z,100829.59
2018-08-10T20:34:13.804Z,100828.61
2018-08-10T20:36:42.510Z,100829.95
2018-08-10T20:39:12.061Z,100831.41
2018-08-10T20:41:40.955Z,100836.26
2018-08-10T20:44:10.550Z,100832.55
2018-08-10T20:46:40.349Z,100829.16
2018-08-10T20:49:08.988Z,100829.61
2018-08-10T20:51:38.006Z,100826.17
2018-08-10T20:54:07.111Z,100826.30
2018-08-10T20:56:37.427Z,100827.35
2018-08-10T20:59:06.954Z,100826.22
2018-08-10T21:01:37.030Z,100825.44
2018-08-10T21:04:06.045Z,100822.06
2018-08-10T21:06:35.794Z,100823.64
2018-08-10T21:09:07.028Z,100823.36
2018-08-10T21:11:35.749Z,100823.05
2018-08-10T21:14:05.279Z,100820.55
2018-08-10T21:16:34.929Z,100823.77
2018-08-10T21:19:08.974Z,100823.50
2018-08-10T21:21:39.623Z,100819.83
2018-08-10T21:24:08.817Z,100816.02
2018-08-10T21:26:37.676Z,100817.96
2018-08-10T21:29:11.782Z,100813.17
2018-08-10T21:31:42.363Z,100817.83
2018-08-10T21:34:11.910Z,100817.83
2018-08-10T21:36:40.549Z,100814.11
2018-08-10T21:39:14.289Z,100814.80
2018-08-10T21:41:42.970Z,100817.73
2018-08-10T21:44:12.461Z,100814.02
2018-08-10T21:46:41.186Z,100810.86
2018-08-10T21:49:15.196Z,100815.16
2018-08-10T21:51:44.986Z,100823.42
2018-08-10T21:54:13.673Z,100828.86
2018-08-10T21:56:42.320Z,100820.07
2018-08-10T21:59:11.166Z,100826.95
2018-08-10T22:01:40.011Z,100829.25
2018-08-10T22:04:10.717Z,100829.64
2018-08-10T22:06:39.937Z,100832.36
2018-08-10T22:09:09.269Z,100825.86
2018-08-10T22:11:37.781Z,100829.16
2018-08-10T22:14:11.570Z,100826.70
2018-08-10T22:16:46.823Z,100829.63
2018-08-10T22:19:17.045Z,100824.03
2018-08-10T22:21:46.319Z,100828.99
2018-08-10T22:24:16.205Z,100827.29
2018-08-10T22:26:45.217Z,100834.95
2018-08-10T22:29:19.517Z,100835.30
2018-08-10T22:31:49.503Z,100827.98
2018-08-10T22:34:19.150Z,100829.36
2018-08-10T22:36:48.568Z,100827.55
2018-08-10T22:39:27.526Z,100822.70
2018-08-10T22:41:56.571Z,100825.42
2018-08-10T22:44:25.542Z,100823.71
2018-08-10T22:46:55.001Z,100821.81
2018-08-10T22:49:24.606Z,100823.36
2018-08-10T22:51:53.524Z,100818.52
2018-08-10T22:54:22.283Z,100822.69
2018-08-10T22:56:52.532Z,100823.80
2018-08-10T22:59:21.395Z,100821.09
2018-08-10T23:01:49.986Z,100815.70
2018-08-10T23:04:18.446Z,100812.34
2018-08-10T23:06:47.142Z,100817.08
2018-08-10T23:09:16.090Z,100813.48
2018-08-10T23:11:44.680Z,100817.55
2018-08-10T23:14:13.126Z,100811.02
2018-08-10T23:16:42.706Z,100814.55
2018-08-10T23:19:16.534Z,100802.93
2018-08-10T23:21:45.984Z,100797.72
2018-08-10T23:24:14.574Z,100795.59
2018-08-10T23:26:44.134Z,100789.71
2018-08-10T23:29:12.988Z,100790.95
2018-08-10T23:31:41.510Z,100783.52
2018-08-10T23:34:10.054Z,100784.75
2018-08-10T23:36:38.729Z,100782.41
2018-08-10T23:39:12.983Z,100777.11
2018-08-10T23:41:41.670Z,100773.95
2018-08-10T23:44:10.466Z,100782.53
2018-08-10T23:46:38.953Z,100784.25
2018-08-10T23:49:07.580Z,100779.73
2018-08-10T23:51:36.478Z,100778.72
2018-08-10T23:54:05.100Z,100783.56
2018-08-10T23:56:33.634Z,100774.44
2018-08-10T23:59:02.317Z,100779.73
